Time;durP1;ratioP1;P1;durP2;ratioP2;P2;SDS_P1;SDS_P2;PMS_P1;PMS_P2;Temp;Humidity;BMP_temperature;BMP_pressure;BME280_temperature;BME280_humidity;BME280_pressure;Samples;Min_cycle;Max_cycle;Signal;HPM_P1;HPM_P2
2024/01/23 00:01:46;;;;;;;;;;;;;;;9.48;54.06;98821.18;67622;1280;1016611;-69
2024/01/23 00:04:49;;;;;;;;;;;;;;;9.35;54.58;98818.73;67624;1280;1016229;-70
2024/01/23 00:07:51;;;;;;;;;;;;;;;9.32;55.52;98821.51;67653;1280;1019720;-71
2024/01/23 00:10:54;;;;;;;;;;;;;;;9.19;56.75;98828.86;67648;1280;1016377;-71
2024/01/23 00:13:56;;;;;;;;;;;;;;;8.87;58.54;98827.83;67603;1280;1016216;-71
2024/01/23 00:16:58;;;;;;;;;;;;;;;8.92;59.17;98824.60;67611;1280;1016090;-71
2024/01/23 00:20:01;;;;;;;;;;;;;;;9.07;58.91;98816.64;67641;1280;1016418;-71
2024/01/23 00:23:03;;;;;;;;;;;;;;;9.05;60.58;98816.23;67655;1280;1018213;-71
2024/01/23 00:26:06;;;;;;;;;;;;;;;9.01;60.98;98819.02;67608;1280;1016194;-70
2024/01/23 00:29:08;;;;;;;;;;;;;;;8.91;61.62;98827.95;67621;1280;1016397;-67
2024/01/23 00:32:11;;;;;;;;;;;;;;;8.89;62.45;98818.83;67624;1280;1016320;-70
2024/01/23 00:35:14;;;;;;;;;;;;;;;8.84;63.19;98816.83;67640;1280;1016207;-71
2024/01/23 00:38:16;;;;;;;;;;;;;;;8.82;63.38;98816.23;67617;1280;1016923;-71
2024/01/23 00:41:19;;;;;;;;;;;;;;;8.81;62.63;98820.13;67624;1280;1016793;-71
2024/01/23 00:44:22;;;;;;;;;;;;;;;8.88;64.35;98822.52;67644;1280;1016364;-70
2024/01/23 00:47:24;;;;;;;;;;;;;;;8.80;64.69;98822.60;67626;1280;1016309;-71
2024/01/23 00:50:27;;;;;;;;;;;;;;;8.73;65.58;98823.16;67611;1280;1016345;-71
2024/01/23 00:53:29;;;;;;;;;;;;;;;8.86;65.65;98825.08;67642;1280;1018991;-70
2024/01/23 00:56:31;;;;;;;;;;;;;;;8.89;65.81;98824.59;67647;1280;1018819;-69
2024/01/23 00:59:34;;;;;;;;;;;;;;;8.56;67.57;98823.70;67656;1280;1016325;-71
2024/01/23 01:02:36;;;;;;;;;;;;;;;8.59;68.69;98829.30;67567;1280;1016523;-70
2024/01/23 01:05:39;;;;;;;;;;;;;;;8.61;68.85;98831.45;67584;1280;1016461;-71
2024/01/23 01:08:41;;;;;;;;;;;;;;;8.55;70.70;98835.11;67657;1280;1016903;-70
2024/01/23 01:11:44;;;;;;;;;;;;;;;8.56;70.43;98842.72;67655;1280;1016403;-70
2024/01/23 01:14:46;;;;;;;;;;;;;;;8.59;71.15;98841.66;67629;1280;1016518;-70
2024/01/23 01:17:49;;;;;;;;;;;;;;;8.69;69.80;98845.71;67589;1280;1016444;-71
2024/01/23 01:20:51;;;;;;;;;;;;;;;8.64;70.06;98841.21;67610;1280;1016455;-71
2024/01/23 01:23:54;;;;;;;;;;;;;;;8.65;70.12;98844.00;67643;1280;1016314;-71
2024/01/23 01:26:56;;;;;;;;;;;;;;;8.63;69.31;98844.95;67594;1280;1016526;-70
2024/01/23 01:29:59;;;;;;;;;;;;;;;8.60;69.35;98850.14;67624;1280;1016244;-71
2024/01/23 01:33:01;;;;;;;;;;;;;;;8.58;71.74;98853.42;67640;1280;1015992;-71
2024/01/23 01:36:04;;;;;;;;;;;;;;;8.73;69.45;98861.52;67646;1280;1016420;-72
2024/01/23 01:39:06;;;;;;;;;;;;;;;8.75;68.40;98862.64;67607;1280;1016349;-71
2024/01/23 01:42:10;;;;;;;;;;;;;;;8.65;68.78;98860.20;67633;1280;1016428;-71
2024/01/23 01:45:12;;;;;;;;;;;;;;;8.21;73.74;98862.44;67620;1280;1016505;-70
2024/01/23 01:48:15;;;;;;;;;;;;;;;8.29;72.58;98864.97;67628;1280;1016045;-71
2024/01/23 01:51:17;;;;;;;;;;;;;;;8.19;74.75;98867.41;67627;1280;1016167;-71
2024/01/23 01:54:19;;;;;;;;;;;;;;;8.05;76.17;98877.33;67586;1280;1016116;-70
2024/01/23 01:57:22;;;;;;;;;;;;;;;8.26;75.35;98878.02;67640;1279;1016085;-71
2024/01/23 02:00:25;;;;;;;;;;;;;;;8.25;74.65;98879.99;67600;1280;1016476;-70
2024/01/23 02:03:27;;;;;;;;;;;;;;;8.27;73.33;98885.99;67603;1280;1018882;-71
2024/01/23 02:06:30;;;;;;;;;;;;;;;8.33;73.86;98885.83;67637;1280;1017221;-70
2024/01/23 02:09:33;;;;;;;;;;;;;;;8.31;73.55;98877.60;67567;1280;1016342;-71
2024/01/23 02:12:35;;;;;;;;;;;;;;;8.45;72.58;98876.90;67604;1280;1016979;-70
2024/01/23 02:15:38;;;;;;;;;;;;;;;8.60;71.25;98875.09;67628;1280;1016410;-71
2024/01/23 02:18:40;;;;;;;;;;;;;;;8.62;71.23;98877.42;67626;1280;1016316;-71
2024/01/23 02:21:43;;;;;;;;;;;;;;;8.51;73.02;98887.92;67585;1280;1016150;-71
2024/01/23 02:24:45;;;;;;;;;;;;;;;8.58;72.09;98883.04;67609;1280;1016281;-71
2024/01/23 02:27:48;;;;;;;;;;;;;;;8.77;70.34;98870.53;67602;1280;1017203;-71
2024/01/23 02:30:50;;;;;;;;;;;;;;;8.48;71.73;98870.96;67621;1280;1016491;-70
2024/01/23 02:33:53;;;;;;;;;;;;;;;8.60;70.80;98868.29;67616;1280;1016281;-71
2024/01/23 02:36:55;;;;;;;;;;;;;;;8.81;69.91;98871.20;67584;1280;1016324;-71
2024/01/23 02:39:58;;;;;;;;;;;;;;;8.78;69.92;98875.02;67632;1280;1016207;-71
2024/01/23 02:43:00;;;;;;;;;;;;;;;8.51;70.78;98882.31;67620;1280;1018200;-70
2024/01/23 02:46:03;;;;;;;;;;;;;;;8.55;70.54;98877.64;67636;1280;1016065;-70
2024/01/23 02:49:05;;;;;;;;;;;;;;;8.54;70.76;98880.80;67628;1280;1016357;-71
2024/01/23 02:52:08;;;;;;;;;;;;;;;8.61;70.52;98890.72;67612;1280;1015795;-68
2024/01/23 02:55:10;;;;;;;;;;;;;;;8.38;72.61;98894.84;67588;1280;1016461;-70
2024/01/23 02:58:15;;;;;;;;;;;;;;;8.42;72.78;98884.90;67624;1280;1016705;-71
2024/01/23 03:01:18;;;;;;;;;;;;;;;8.43;72.06;98890.23;67579;1280;1016349;-70
2024/01/23 03:04:20;;;;;;;;;;;;;;;8.43;72.40;98885.88;67568;1280;1016342;-71
2024/01/23 03:07:22;;;;;;;;;;;;;;;8.49;71.30;98879.86;67642;1280;1016392;-71
2024/01/23 03:10:25;;;;;;;;;;;;;;;8.43;72.86;98880.13;67629;1280;1016058;-71
2024/01/23 03:13:27;;;;;;;;;;;;;;;8.41;72.83;98867.50;67587;1280;1016300;-70
2024/01/23 03:16:30;;;;;;;;;;;;;;;8.54;72.76;98868.96;67575;1280;1016002;-71
2024/01/23 03:19:32;;;;;;;;;;;;;;;8.52;72.32;98867.34;67615;1280;1016162;-71
2024/01/23 03:22:35;;;;;;;;;;;;;;;8.47;72.85;98855.71;67638;1280;1016411;-71
2024/01/23 03:25:37;;;;;;;;;;;;;;;8.39;72.63;98857.14;67598;1280;1016575;-71
2024/01/23 03:28:40;;;;;;;;;;;;;;;8.40;72.52;98853.45;67600;1280;1016561;-71
2024/01/23 03:31:43;;;;;;;;;;;;;;;8.39;71.79;98858.35;67599;1280;1016965;-71
2024/01/23 03:34:45;;;;;;;;;;;;;;;8.44;71.83;98857.95;67610;1280;1016506;-71
2024/01/23 03:37:48;;;;;;;;;;;;;;;8.27;73.01;98873.58;65048;1280;6385216;-71
2024/01/23 03:40:50;;;;;;;;;;;;;;;8.36;72.52;98872.27;67676;1280;1016346;-71
2024/01/23 03:44:02;;;;;;;;;;;;;;;8.44;71.32;98871.52;67598;1280;1016311;-70
2024/01/23 03:47:05;;;;;;;;;;;;;;;8.52;70.17;98876.38;67623;1280;1016406;-71
2024/01/23 03:50:08;;;;;;;;;;;;;;;8.62;69.71;98875.34;67571;1280;1016206;-71
2024/01/23 03:53:10;;;;;;;;;;;;;;;8.46;70.34;98877.36;67579;1280;1016534;-72
2024/01/23 03:56:13;;;;;;;;;;;;;;;8.38;71.79;98885.44;67631;1280;1016810;-70
2024/01/23 03:59:15;;;;;;;;;;;;;;;8.44;70.90;98886.52;67605;1280;1016171;-71
2024/01/23 04:02:20;;;;;;;;;;;;;;;8.42;72.41;98895.31;67607;1280;1016439;-71
2024/01/23 04:05:23;;;;;;;;;;;;;;;8.22;73.34;98898.23;67618;1280;1016771;-71
2024/01/23 04:08:25;;;;;;;;;;;;;;;8.03;75.03;98890.14;67596;1280;1016514;-71
2024/01/23 04:11:29;;;;;;;;;;;;;;;8.03;74.33;98889.09;67600;1280;1016342;-71
2024/01/23 04:14:32;;;;;;;;;;;;;;;8.30;71.95;98881.82;67587;1280;1015700;-71
2024/01/23 04:17:34;;;;;;;;;;;;;;;8.25;72.79;98877.73;67607;1280;1016064;-72
2024/01/23 04:20:38;;;;;;;;;;;;;;;8.23;72.35;98882.34;67620;1280;1019087;-71
2024/01/23 04:23:40;;;;;;;;;;;;;;;8.24;73.02;98890.31;67583;1280;1016461;-71
2024/01/23 04:26:43;;;;;;;;;;;;;;;8.19;73.69;98893.32;67635;1280;1016495;-71
2024/01/23 04:29:45;;;;;;;;;;;;;;;8.06;74.06;98893.61;67614;1280;1016320;-71
2024/01/23 04:32:48;;;;;;;;;;;;;;;8.19;73.83;98898.90;67574;1280;1017079;-71
2024/01/23 04:35:50;;;;;;;;;;;;;;;8.19;73.02;98898.05;67572;1280;1016183;-71
2024/01/23 04:38:52;;;;;;;;;;;;;;;8.20;73.16;98898.52;67619;1280;1016354;-71
2024/01/23 04:41:55;;;;;;;;;;;;;;;7.95;75.04;98900.96;67621;1280;1016494;-70
2024/01/23 04:44:57;;;;;;;;;;;;;;;8.00;73.89;98908.38;67602;1280;1016405;-71
2024/01/23 04:48:00;;;;;;;;;;;;;;;8.08;73.14;98909.23;67576;1280;1017096;-71
2024/01/23 04:51:02;;;;;;;;;;;;;;;7.97;75.16;98919.15;67576;1280;1016155;-71
2024/01/23 04:54:05;;;;;;;;;;;;;;;7.86;75.58;98920.55;67621;1280;1016481;-71
2024/01/23 04:57:07;;;;;;;;;;;;;;;7.91;75.43;98922.06;67590;1280;1016265;-71
2024/01/23 05:00:10;;;;;;;;;;;;;;;7.94;75.20;98922.95;67579;1280;1015942;-69
2024/01/23 05:03:12;;;;;;;;;;;;;;;8.03;74.61;98927.38;67624;1280;1019001;-71
2024/01/23 05:06:15;;;;;;;;;;;;;;;8.07;74.03;98933.65;67618;1280;1016191;-71
2024/01/23 05:09:19;;;;;;;;;;;;;;;8.06;74.76;98933.71;67582;1280;1016514;-71
2024/01/23 05:12:21;;;;;;;;;;;;;;;8.04;75.16;98939.04;67618;1280;1016741;-71
2024/01/23 05:15:24;;;;;;;;;;;;;;;7.70;78.51;98949.30;67571;1280;1016858;-71
2024/01/23 05:18:26;;;;;;;;;;;;;;;7.87;77.01;98945.73;67613;1280;1016147;-72
2024/01/23 05:21:29;;;;;;;;;;;;;;;7.93;76.88;98951.73;67613;1280;1017132;-71
2024/01/23 05:24:32;;;;;;;;;;;;;;;7.70;78.69;98947.96;67570;1280;1016454;-70
2024/01/23 05:27:34;;;;;;;;;;;;;;;7.80;78.08;98940.17;67600;1280;1016958;-71
2024/01/23 05:30:37;;;;;;;;;;;;;;;7.86;77.01;98942.52;67643;1280;1016468;-71
2024/01/23 05:33:40;;;;;;;;;;;;;;;7.82;78.43;98949.28;67565;1280;1016480;-71
2024/01/23 05:36:43;;;;;;;;;;;;;;;7.70;79.24;98955.95;67603;1280;1016577;-71
2024/01/23 05:39:46;;;;;;;;;;;;;;;7.75;79.24;98960.42;67566;1280;1018319;-71
2024/01/23 05:42:48;;;;;;;;;;;;;;;7.74;79.65;98963.25;67583;1280;1016386;-71
2024/01/23 05:45:53;;;;;;;;;;;;;;;7.80;78.48;98966.45;67581;1280;1016440;-71
2024/01/23 05:48:55;;;;;;;;;;;;;;;7.79;78.42;98966.16;67608;1280;1016996;-71
2024/01/23 05:51:58;;;;;;;;;;;;;;;7.72;79.07;98970.80;67599;1280;1016377;-71
2024/01/23 05:55:01;;;;;;;;;;;;;;;7.74;78.86;98973.20;67560;1280;1016530;-71
2024/01/23 05:58:03;;;;;;;;;;;;;;;7.97;76.19;98973.69;67616;1280;1016184;-71
2024/01/23 06:01:06;;;;;;;;;;;;;;;7.85;76.81;98969.70;67612;1280;1016221;-71
2024/01/23 06:04:09;;;;;;;;;;;;;;;7.67;78.85;98967.79;67592;1280;1016211;-69
2024/01/23 06:07:11;;;;;;;;;;;;;;;7.86;76.89;98968.28;67620;1280;1016427;-71
2024/01/23 06:10:14;;;;;;;;;;;;;;;7.77;77.22;98974.44;67633;1280;1015852;-71
2024/01/23 06:13:17;;;;;;;;;;;;;;;7.81;76.65;98973.05;67605;1280;1016349;-71
2024/01/23 06:16:19;;;;;;;;;;;;;;;7.91;75.03;98977.42;67622;1280;1016398;-69
2024/01/23 06:19:22;;;;;;;;;;;;;;;7.85;74.84;98983.96;67586;1280;1016265;-71
2024/01/23 06:22:25;;;;;;;;;;;;;;;7.90;74.50;98987.54;67573;1280;1019045;-71
2024/01/23 06:25:28;;;;;;;;;;;;;;;7.78;75.19;98990.73;67621;1280;1016335;-70
2024/01/23 06:28:31;;;;;;;;;;;;;;;7.73;75.89;98991.51;67562;1280;1016468;-71
2024/01/23 06:31:34;;;;;;;;;;;;;;;7.69;77.36;98994.64;67603;1280;1017826;-70
2024/01/23 06:34:36;;;;;;;;;;;;;;;7.54;78.24;98996.21;67613;1280;1016318;-71
2024/01/23 06:37:38;;;;;;;;;;;;;;;7.24;82.31;98996.48;67596;1280;1016266;-71
2024/01/23 06:40:41;;;;;;;;;;;;;;;7.21;82.37;98991.40;67597;1280;1016468;-71
2024/01/23 06:43:43;;;;;;;;;;;;;;;7.08;84.66;98997.73;67622;1280;1016448;-71
2024/01/23 06:46:46;;;;;;;;;;;;;;;7.21;83.07;99005.67;67642;1280;1018204;-71
2024/01/23 06:49:48;;;;;;;;;;;;;;;7.24;83.40;99009.72;67611;1280;1016201;-71
2024/01/23 06:52:51;;;;;;;;;;;;;;;7.39;82.79;99012.91;67596;1280;1016268;-72
2024/01/23 06:55:53;;;;;;;;;;;;;;;7.38;82.65;99012.95;67624;1280;1016372;-71
2024/01/23 06:58:56;;;;;;;;;;;;;;;7.35;83.91;99017.09;67610;1280;1016685;-72
2024/01/23 07:01:58;;;;;;;;;;;;;;;7.29;84.88;99019.39;67597;1280;1016285;-69
2024/01/23 07:05:01;;;;;;;;;;;;;;;7.66;81.72;99017.77;67580;1280;1016389;-72
2024/01/23 07:08:04;;;;;;;;;;;;;;;7.81;80.26;99023.65;67630;1280;1016192;-69
2024/01/23 07:11:06;;;;;;;;;;;;;;;7.76;81.13;99025.66;67593;1280;1016244;-71
2024/01/23 07:14:09;;;;;;;;;;;;;;;7.58;82.64;99031.88;67580;1280;1016379;-67
2024/01/23 07:17:11;;;;;;;;;;;;;;;7.49;84.80;99037.85;67602;1280;1015949;-70
2024/01/23 07:20:14;;;;;;;;;;;;;;;7.63;83.67;99045.38;67609;1280;1016436;-71
2024/01/23 07:23:17;;;;;;;;;;;;;;;7.95;80.51;99051.96;67626;1280;1016416;-71
2024/01/23 07:26:20;;;;;;;;;;;;;;;7.93;81.28;99047.69;67625;1280;1016580;-71
2024/01/23 07:29:22;;;;;;;;;;;;;;;8.24;78.52;99049.34;67589;1280;1016569;-71
2024/01/23 07:32:25;;;;;;;;;;;;;;;8.49;76.50;99053.05;67608;1280;1016418;-71
2024/01/23 07:35:28;;;;;;;;;;;;;;;8.69;74.75;99059.58;67624;1280;1016033;-70
2024/01/23 07:38:31;;;;;;;;;;;;;;;8.62;75.38;99064.98;67577;1280;1016391;-70
2024/01/23 07:41:33;;;;;;;;;;;;;;;8.80;74.27;99068.81;67604;1280;1016376;-72
2024/01/23 07:44:39;;;;;;;;;;;;;;;8.83;73.45;99075.45;67629;1280;1016204;-71
2024/01/23 07:47:41;;;;;;;;;;;;;;;8.95;72.37;99082.19;67604;1280;1018937;-70
2024/01/23 07:50:44;;;;;;;;;;;;;;;9.04;71.34;99086.11;67614;1280;1016457;-72
2024/01/23 07:53:46;;;;;;;;;;;;;;;9.00;71.37;99092.41;67608;1280;1016449;-71
2024/01/23 07:56:50;;;;;;;;;;;;;;;8.89;71.51;99090.35;67571;1280;1017992;-69
2024/01/23 07:59:53;;;;;;;;;;;;;;;8.66;74.04;99089.17;67587;1280;1016415;-72
2024/01/23 08:02:55;;;;;;;;;;;;;;;8.89;72.35;99088.96;67582;1280;1016453;-71
2024/01/23 08:05:59;;;;;;;;;;;;;;;8.84;72.71;99093.36;67620;1280;1018140;-72
2024/01/23 08:09:04;;;;;;;;;;;;;;;8.93;72.02;99105.66;67621;1281;1018175;-72
2024/01/23 08:12:07;;;;;;;;;;;;;;;8.53;74.78;99100.42;67589;1281;1016566;-72
2024/01/23 08:15:10;;;;;;;;;;;;;;;8.46;76.29;99108.47;67611;1280;1019015;-71
2024/01/23 08:18:13;;;;;;;;;;;;;;;8.59;75.06;99107.33;67620;1280;1016514;-71
2024/01/23 08:21:17;;;;;;;;;;;;;;;8.67;74.50;99113.23;67594;1280;1016354;-72
2024/01/23 08:24:19;;;;;;;;;;;;;;;8.76;74.41;99126.36;67580;1280;1016487;-72
2024/01/23 08:27:22;;;;;;;;;;;;;;;8.95;73.31;99126.16;67595;1280;1016555;-70
2024/01/23 08:30:24;;;;;;;;;;;;;;;9.08;71.81;99129.16;67617;1280;1016511;-71
2024/01/23 08:33:27;;;;;;;;;;;;;;;9.08;71.69;99131.61;67610;1281;1016450;-70
2024/01/23 08:36:29;;;;;;;;;;;;;;;9.08;71.16;99132.13;67574;1280;1016438;-71
2024/01/23 08:39:32;;;;;;;;;;;;;;;9.36;69.01;99122.52;67613;1280;1018799;-72
2024/01/23 08:42:34;;;;;;;;;;;;;;;9.43;68.90;99116.95;67592;1280;1016537;-72
2024/01/23 08:45:37;;;;;;;;;;;;;;;9.37;69.46;99118.66;67580;1280;1016517;-72
2024/01/23 08:48:39;;;;;;;;;;;;;;;9.24;70.12;99122.96;67582;1280;1016384;-69
2024/01/23 08:51:42;;;;;;;;;;;;;;;9.13;70.10;99128.21;67596;1280;1016377;-71
2024/01/23 08:54:45;;;;;;;;;;;;;;;9.23;69.88;99138.16;67643;1280;1018789;-72
2024/01/23 08:57:48;;;;;;;;;;;;;;;9.28;69.37;99142.83;67587;1280;1017048;-72
2024/01/23 09:00:50;;;;;;;;;;;;;;;9.42;68.94;99146.65;67626;1280;1016240;-72
2024/01/23 09:03:53;;;;;;;;;;;;;;;9.78;67.29;99151.09;67624;1280;1019363;-72
2024/01/23 09:06:55;;;;;;;;;;;;;;;9.98;65.32;99148.33;67580;1280;1016507;-73
2024/01/23 09:09:58;;;;;;;;;;;;;;;10.05;64.27;99146.88;67589;1280;1018848;-72
2024/01/23 09:13:00;;;;;;;;;;;;;;;9.90;64.63;99151.50;67598;1280;1016424;-72
2024/01/23 09:16:04;;;;;;;;;;;;;;;9.87;65.30;99154.64;67616;1280;1015975;-72
2024/01/23 09:19:06;;;;;;;;;;;;;;;10.32;63.02;99155.39;67635;1280;1016103;-72
2024/01/23 09:22:09;;;;;;;;;;;;;;;10.51;62.30;99156.46;67616;1280;1016388;-72
2024/01/23 09:25:11;;;;;;;;;;;;;;;10.58;61.46;99158.16;67629;1280;1016089;-72
2024/01/23 09:28:13;;;;;;;;;;;;;;;10.70;61.01;99166.45;67582;1280;1016349;-72
2024/01/23 09:31:16;;;;;;;;;;;;;;;10.83;60.28;99171.32;67566;1280;1016703;-72
2024/01/23 09:34:18;;;;;;;;;;;;;;;10.93;59.91;99168.48;67596;1280;1016117;-72
2024/01/23 09:37:21;;;;;;;;;;;;;;;11.10;59.61;99165.06;67629;1280;1016425;-72
2024/01/23 09:40:23;;;;;;;;;;;;;;;11.04;58.79;99165.25;67630;1280;1016391;-72
2024/01/23 09:43:26;;;;;;;;;;;;;;;10.64;59.30;99178.86;67600;1280;1016921;-72
2024/01/23 09:46:28;;;;;;;;;;;;;;;10.26;61.11;99186.48;67599;1280;1016504;-71
2024/01/23 09:49:31;;;;;;;;;;;;;;;10.04;61.98;99185.02;67641;1281;1016505;-72
2024/01/23 09:52:34;;;;;;;;;;;;;;;10.08;62.11;99184.96;67611;1280;1016442;-72
2024/01/23 09:55:36;;;;;;;;;;;;;;;10.24;61.49;99182.03;67599;1280;1018330;-69
2024/01/23 09:58:39;;;;;;;;;;;;;;;10.35;61.16;99187.05;67655;1280;1019463;-72
2024/01/23 10:01:42;;;;;;;;;;;;;;;10.19;61.17;99188.10;67633;1280;1016266;-71
2024/01/23 10:04:44;;;;;;;;;;;;;;;10.01;61.69;99196.90;67593;1280;1016507;-72
2024/01/23 10:07:47;;;;;;;;;;;;;;;10.05;61.61;99186.70;67635;1280;1016499;-72
2024/01/23 10:10:51;;;;;;;;;;;;;;;9.78;63.26;99198.94;67626;1280;1016517;-72
2024/01/23 10:13:56;;;;;;;;;;;;;;;9.90;62.22;99201.98;67654;1280;1019134;-72
2024/01/23 10:16:58;;;;;;;;;;;;;;;9.83;62.40;99213.35;67595;1280;1016347;-72
2024/01/23 10:20:01;;;;;;;;;;;;;;;9.61;63.95;99212.91;67594;1280;1016349;-67
2024/01/23 10:23:04;;;;;;;;;;;;;;;9.84;62.85;99202.13;67622;1281;1016478;-71
2024/01/23 10:26:06;;;;;;;;;;;;;;;10.01;62.02;99197.59;67643;1280;1016423;-72
2024/01/23 10:29:09;;;;;;;;;;;;;;;9.79;62.95;99209.70;67593;1280;1016412;-72
2024/01/23 10:32:11;;;;;;;;;;;;;;;9.74;63.46;99205.58;67578;1280;1016279;-73
2024/01/23 10:35:14;;;;;;;;;;;;;;;9.67;64.00;99205.27;67642;1280;1016443;-72
2024/01/23 10:38:17;;;;;;;;;;;;;;;9.75;64.06;99211.70;67604;1280;1016004;-71
2024/01/23 10:41:20;;;;;;;;;;;;;;;9.73;63.75;99215.27;67632;1280;1016487;-72
2024/01/23 10:44:22;;;;;;;;;;;;;;;9.73;64.17;99226.99;67636;1280;1016476;-72
2024/01/23 10:47:25;;;;;;;;;;;;;;;9.67;65.11;99224.47;67602;1280;1016264;-72
2024/01/23 10:50:29;;;;;;;;;;;;;;;9.57;65.85;99225.65;67582;1280;1016440;-72
2024/01/23 10:53:32;;;;;;;;;;;;;;;9.65;65.65;99228.25;67639;1280;1016408;-72
2024/01/23 10:56:34;;;;;;;;;;;;;;;9.81;64.54;99226.38;67626;1280;1016512;-72
2024/01/23 10:59:37;;;;;;;;;;;;;;;9.84;63.98;99225.38;67603;1280;1016427;-72
2024/01/23 11:02:40;;;;;;;;;;;;;;;9.83;64.32;99232.04;67601;1280;1016465;-72
2024/01/23 11:05:42;;;;;;;;;;;;;;;9.77;64.33;99234.80;67650;1281;1016590;-68
2024/01/23 11:08:45;;;;;;;;;;;;;;;9.98;63.26;99234.77;67625;1281;1016123;-72
2024/01/23 11:11:47;;;;;;;;;;;;;;;9.80;64.08;99241.30;67584;1280;1016462;-72
2024/01/23 11:14:50;;;;;;;;;;;;;;;9.90;63.39;99247.41;67630;1280;1016227;-72
2024/01/23 11:17:53;;;;;;;;;;;;;;;9.90;63.29;99250.58;67581;1280;1016337;-72
2024/01/23 11:20:55;;;;;;;;;;;;;;;9.73;64.44;99257.35;67613;1280;1015880;-72
2024/01/23 11:23:58;;;;;;;;;;;;;;;9.57;67.21;99260.95;67647;1280;1016420;-72
2024/01/23 11:27:00;;;;;;;;;;;;;;;9.31;70.10;99260.48;67653;1280;1016500;-72
2024/01/23 11:30:04;;;;;;;;;;;;;;;9.36;70.70;99264.95;67648;1280;1016347;-72
2024/01/23 11:33:07;;;;;;;;;;;;;;;9.32;71.62;99263.23;67642;1280;1016330;-72
2024/01/23 11:36:10;;;;;;;;;;;;;;;9.43;71.43;99261.29;67664;1280;1016343;-72
2024/01/23 11:39:12;;;;;;;;;;;;;;;9.66;69.43;99262.41;67581;1280;1016242;-71
2024/01/23 11:42:15;;;;;;;;;;;;;;;9.59;70.16;99270.63;67601;1281;1017087;-72
2024/01/23 11:45:17;;;;;;;;;;;;;;;9.62;70.18;99269.96;67635;1280;1016079;-71
2024/01/23 11:48:20;;;;;;;;;;;;;;;9.66;70.09;99269.40;67650;1280;1016475;-69
2024/01/23 11:51:22;;;;;;;;;;;;;;;9.64;70.31;99269.32;67616;1280;1015918;-70
2024/01/23 11:54:25;;;;;;;;;;;;;;;9.49;71.26;99270.61;67608;1280;1016969;-71
2024/01/23 11:57:27;;;;;;;;;;;;;;;9.64;70.54;99272.10;67652;1280;1016400;-72
2024/01/23 12:00:30;;;;;;;;;;;;;;;9.86;68.95;99270.34;67663;1280;1015784;-72
2024/01/23 12:03:32;;;;;;;;;;;;;;;9.77;69.38;99265.91;67563;1280;1016249;-69
2024/01/23 12:06:35;;;;;;;;;;;;;;;9.80;69.46;99260.14;67617;1280;1016419;-71
2024/01/23 12:09:37;;;;;;;;;;;;;;;9.97;68.31;99260.16;67640;1281;1016254;-72
2024/01/23 12:12:40;;;;;;;;;;;;;;;9.96;67.40;99266.48;67670;1280;1016376;-72
2024/01/23 12:15:44;;;;;;;;;;;;;;;9.93;67.13;99249.52;67681;1280;1016291;-71
2024/01/23 12:18:46;;;;;;;;;;;;;;;10.14;65.66;99249.88;67602;1280;1016022;-71
2024/01/23 12:21:49;;;;;;;;;;;;;;;10.26;65.09;99255.67;67614;1280;1018720;-70
2024/01/23 12:24:51;;;;;;;;;;;;;;;10.40;64.64;99258.30;67682;1280;1016155;-71
2024/01/23 12:27:54;;;;;;;;;;;;;;;10.89;61.92;99259.13;67653;1280;1016424;-68
2024/01/23 12:30:56;;;;;;;;;;;;;;;11.17;60.66;99249.73;67609;1280;1016411;-71
2024/01/23 12:33:58;;;;;;;;;;;;;;;11.05;60.25;99254.00;67596;1280;1016420;-71
2024/01/23 12:37:01;;;;;;;;;;;;;;;10.28;64.09;99251.56;67639;1280;1016452;-70
2024/01/23 12:40:08;;;;;;;;;;;;;;;10.16;64.64;99254.29;67655;1280;1016392;-72
2024/01/23 12:43:11;;;;;;;;;;;;;;;10.17;64.83;99259.11;67639;1280;1016764;-71
2024/01/23 12:46:14;;;;;;;;;;;;;;;10.41;63.39;99256.16;67661;1280;1015924;-72
2024/01/23 12:49:18;;;;;;;;;;;;;;;10.63;61.93;99252.38;67605;1280;1016435;-72
2024/01/23 12:52:21;;;;;;;;;;;;;;;10.66;61.77;99254.61;67627;1280;1016443;-72
2024/01/23 12:55:24;;;;;;;;;;;;;;;10.85;60.44;99261.97;67652;1280;1016488;-71
2024/01/23 12:58:27;;;;;;;;;;;;;;;10.83;60.87;99271.39;67628;1280;1016386;-71
2024/01/23 13:01:29;;;;;;;;;;;;;;;10.86;60.73;99267.04;67660;1280;1016051;-71
2024/01/23 13:04:32;;;;;;;;;;;;;;;10.97;59.95;99263.07;67656;1280;1016392;-71
2024/01/23 13:07:34;;;;;;;;;;;;;;;10.98;59.71;99265.31;67652;1280;1016402;-71
2024/01/23 13:10:38;;;;;;;;;;;;;;;10.86;60.21;99274.69;67614;1280;1017362;-68
2024/01/23 13:13:42;;;;;;;;;;;;;;;10.81;60.67;99285.30;67645;1280;1016438;-67
2024/01/23 13:16:44;;;;;;;;;;;;;;;10.75;60.60;99298.57;67659;1280;1016098;-68
2024/01/23 13:19:47;;;;;;;;;;;;;;;10.77;60.69;99303.73;67621;1280;1016054;-66
2024/01/23 13:22:49;;;;;;;;;;;;;;;10.76;60.65;99297.11;67613;1280;1016416;-72
2024/01/23 13:25:52;;;;;;;;;;;;;;;10.71;60.95;99307.52;67670;1280;1016339;-71
2024/01/23 13:28:55;;;;;;;;;;;;;;;10.68;60.81;99310.51;67593;1280;1016184;-66
2024/01/23 13:31:59;;;;;;;;;;;;;;;10.66;60.86;99308.88;67654;1280;1016313;-67
2024/01/23 13:35:01;;;;;;;;;;;;;;;10.72;60.58;99309.40;67602;1280;1016305;-67
2024/01/23 13:38:05;;;;;;;;;;;;;;;10.82;59.99;99317.78;67619;1280;1016248;-71
2024/01/23 13:41:08;;;;;;;;;;;;;;;10.86;59.75;99318.66;67581;1280;1016431;-71
2024/01/23 13:44:10;;;;;;;;;;;;;;;10.83;59.82;99316.35;67641;1280;1016397;-72
2024/01/23 13:47:13;;;;;;;;;;;;;;;10.91;59.49;99318.67;67620;1280;1016433;-70
2024/01/23 13:50:16;;;;;;;;;;;;;;;10.93;59.16;99318.60;67657;1280;1016402;-71
2024/01/23 13:53:19;;;;;;;;;;;;;;;10.85;59.39;99320.40;67680;1280;1016470;-72
2024/01/23 13:56:22;;;;;;;;;;;;;;;10.82;59.36;99324.95;67619;1280;1016404;-72
2024/01/23 13:59:24;;;;;;;;;;;;;;;10.71;59.86;99327.30;67619;1280;1016492;-71
2024/01/23 14:02:27;;;;;;;;;;;;;;;10.80;59.52;99329.25;67672;1280;1016300;-71
2024/01/23 14:05:30;;;;;;;;;;;;;;;10.47;60.75;99339.19;67650;1280;1016509;-72
2024/01/23 14:08:33;;;;;;;;;;;;;;;10.29;61.72;99334.87;67653;1280;1016513;-71
2024/01/23 14:11:36;;;;;;;;;;;;;;;10.48;60.79;99341.64;67619;1280;1016926;-71
2024/01/23 14:14:38;;;;;;;;;;;;;;;10.48;59.85;99353.16;67639;1280;1017178;-71
2024/01/23 14:17:41;;;;;;;;;;;;;;;10.50;59.33;99360.71;67661;1280;1016194;-71
2024/01/23 14:20:44;;;;;;;;;;;;;;;10.34;59.41;99362.43;67624;1280;1015911;-67
2024/01/23 14:23:47;;;;;;;;;;;;;;;10.28;59.58;99370.05;67634;1280;1016438;-72
2024/01/23 14:26:50;;;;;;;;;;;;;;;10.22;59.42;99362.84;67627;1280;1016344;-71
2024/01/23 14:29:52;;;;;;;;;;;;;;;9.95;60.58;99352.98;67652;1280;1016421;-72
2024/01/23 14:32:55;;;;;;;;;;;;;;;9.70;61.50;99373.96;67658;1280;1016380;-71
2024/01/23 14:35:59;;;;;;;;;;;;;;;9.70;61.37;99374.52;67611;1280;1016308;-70
2024/01/23 14:39:02;;;;;;;;;;;;;;;9.77;60.47;99376.27;67623;1280;1016504;-71
2024/01/23 14:42:05;;;;;;;;;;;;;;;9.70;60.18;99387.41;67663;1280;1016254;-71
2024/01/23 14:45:08;;;;;;;;;;;;;;;9.81;59.25;99398.81;67617;1280;1016706;-71
2024/01/23 14:48:10;;;;;;;;;;;;;;;9.67;59.59;99394.88;67630;1280;1016769;-71
2024/01/23 14:51:13;;;;;;;;;;;;;;;9.88;58.83;99380.61;67672;1280;1016357;-72
2024/01/23 14:54:37;;;;;;;;;;;;;;;9.95;58.58;99395.81;67648;1280;1016333;-71
2024/01/23 14:57:39;;;;;;;;;;;;;;;10.02;58.27;99395.45;67654;1280;1017009;-72
2024/01/23 15:00:42;;;;;;;;;;;;;;;9.93;58.20;99386.48;67618;1280;1016427;-71
2024/01/23 15:03:44;;;;;;;;;;;;;;;9.93;57.54;99393.32;67595;1280;1016444;-68
2024/01/23 15:06:47;;;;;;;;;;;;;;;9.92;57.67;99395.29;67650;1280;1016484;-71
2024/01/23 15:09:50;;;;;;;;;;;;;;;9.90;57.44;99395.38;67649;1280;1016429;-71
2024/01/23 15:12:52;;;;;;;;;;;;;;;10.02;56.86;99395.48;67625;1280;1016262;-71
2024/01/23 15:15:55;;;;;;;;;;;;;;;9.99;56.82;99397.89;67674;1280;1019390;-68
2024/01/23 15:18:58;;;;;;;;;;;;;;;9.99;56.90;99401.91;67672;1280;1017107;-72
2024/01/23 15:22:00;;;;;;;;;;;;;;;10.06;56.09;99414.70;67618;1280;1016449;-72
2024/01/23 15:25:03;;;;;;;;;;;;;;;10.26;55.52;99422.05;67661;1280;1016419;-72
2024/01/23 15:28:05;;;;;;;;;;;;;;;10.36;54.80;99428.59;67678;1280;1016370;-72
2024/01/23 15:31:08;;;;;;;;;;;;;;;10.46;54.37;99431.76;67645;1280;1016189;-64
2024/01/23 15:34:11;;;;;;;;;;;;;;;10.52;54.01;99438.45;67628;1280;1019574;-71
2024/01/23 15:37:13;;;;;;;;;;;;;;;10.43;54.24;99447.33;65107;1279;6364348;-71